CU-0038 weather

Fundo de Buena Ventura Airport
Camag├╝ey, Cuba

Public forecast

Using degrees Celsius for public forecast. Weather courtesy of forecast.io.

METAR (pilot weather report)

Closest report is Ignacio Agramonte International Airport, 35.6 nm (66.0 km) NE. Retrieved 2019/07/20 13:51 UTC (1 hour ago):

MUCM 201351Z 06011KT 9000 FEW016 29/25 Q1017

TAF (pilot weather forecast)

Closest forecast is Ignacio Agramonte International Airport, 35.6 nm (66.0 km) NE. Retrieved 2019/07/20 12:06 UTC (3 hours ago):

TAF MUCM 201100Z 2012/2112 VRB03KT 9000 FEW020 BECMG 2013/2015 06010KT BKN020 TEMPO 2019/2024 4000 TSRA SCT016CB BKN018 BECMG 2102/2105 VRB03KT SCT020